Time;durP1;ratioP1;P1;durP2;ratioP2;P2;SDS_P1;SDS_P2;PMS_P1;PMS_P2;Temp;Humidity;BMP_temperature;BMP_pressure;BME280_temperature;BME280_humidity;BME280_pressure;Samples;Min_cycle;Max_cycle;Signal;HPM_P1;HPM_P2
2021/08/20 00:02:29;;;;;;;8.75;3.78;;;;;;;;;;5154882;27;20027;-73
2021/08/20 00:04:55;;;;;;;7.47;5.30;;;;;;;;;;5136214;27;20090;-73
2021/08/20 00:07:21;;;;;;;7.50;5.13;;;;;;;;;;5155198;27;20415;-73
2021/08/20 00:09:48;;;;;;;7.30;5.22;;;;;;;;;;5136683;27;20022;-72
2021/08/20 00:12:13;;;;;;;9.55;5.63;;;;;;;;;;5154777;27;20470;-73
2021/08/20 00:14:39;;;;;;;8.50;6.15;;;;;;;;;;5154653;27;20019;-73
2021/08/20 00:17:05;;;;;;;6.88;5.25;;;;;;;;;;5155140;27;20027;-72
2021/08/20 00:19:31;;;;;;;9.05;4.85;;;;;;;;;;5154656;27;20526;-73
2021/08/20 00:21:56;;;;;;;7.03;4.72;;;;;;;;;;5154705;27;20018;-72
2021/08/20 00:24:22;;;;;;;7.50;5.03;;;;;;;;;;5154613;27;20022;-73
2021/08/20 00:26:48;;;;;;;5.70;3.95;;;;;;;;;;5154735;27;20027;-72
2021/08/20 00:29:13;;;;;;;8.48;4.72;;;;;;;;;;5154600;27;20033;-72
2021/08/20 00:31:39;;;;;;;8.00;5.57;;;;;;;;;;5136076;27;20062;-73
2021/08/20 00:34:04;;;;;;;6.93;4.63;;;;;;;;;;5154582;27;20377;-73
2021/08/20 00:36:30;;;;;;;9.85;4.65;;;;;;;;;;5154551;27;20084;-72
2021/08/20 00:38:56;;;;;;;8.48;5.10;;;;;;;;;;5136156;27;20438;-72
2021/08/20 00:41:21;;;;;;;9.13;4.93;;;;;;;;;;5155120;27;20129;-72
2021/08/20 00:43:47;;;;;;;7.93;6.00;;;;;;;;;;5158199;27;20102;-72
2021/08/20 00:46:13;;;;;;;6.75;4.30;;;;;;;;;;5158331;27;20087;-72
2021/08/20 00:48:39;;;;;;;8.07;5.15;;;;;;;;;;5158344;27;20022;-72
2021/08/20 00:51:10;;;;;;;7.53;5.30;;;;;;;;;;5158140;27;20026;-72
2021/08/20 00:53:36;;;;;;;8.65;5.07;;;;;;;;;;5157995;27;20026;-72
2021/08/20 00:56:04;;;;;;;7.03;4.65;;;;;;;;;;5158006;27;20109;-73
2021/08/20 00:58:30;;;;;;;7.90;5.88;;;;;;;;;;5139283;27;20381;-72
2021/08/20 01:00:56;;;;;;;7.00;5.43;;;;;;;;;;5139233;27;20023;-72
2021/08/20 01:03:22;;;;;;;8.75;4.65;;;;;;;;;;5157898;27;20023;-72
2021/08/20 01:05:52;;;;;;;9.45;4.68;;;;;;;;;;5157817;27;20075;-72
2021/08/20 01:08:22;;;;;;;9.00;4.55;;;;;;;;;;5158032;27;20473;-73
2021/08/20 01:10:50;;;;;;;7.60;5.80;;;;;;;;;;5157695;27;20026;-73
2021/08/20 01:13:17;;;;;;;7.22;4.78;;;;;;;;;;5157654;27;20041;-72
2021/08/20 01:15:43;;;;;;;8.07;4.13;;;;;;;;;;5139035;27;20494;-72
2021/08/20 01:18:09;;;;;;;7.15;3.88;;;;;;;;;;5157457;27;20058;-72
2021/08/20 01:20:34;;;;;;;9.20;5.18;;;;;;;;;;5157486;27;20049;-72
2021/08/20 01:23:03;;;;;;;8.43;5.03;;;;;;;;;;5157421;27;20045;-72
2021/08/20 01:25:29;;;;;;;6.93;5.22;;;;;;;;;;5138773;27;20047;-73
2021/08/20 01:28:13;;;;;;;7.18;5.00;;;;;;;;;;5157157;27;20077;-72
2021/08/20 01:30:39;;;;;;;9.98;5.03;;;;;;;;;;5137797;27;20521;-72
2021/08/20 01:33:05;;;;;;;6.88;4.05;;;;;;;;;;5156795;27;20097;-72
2021/08/20 01:35:33;;;;;;;7.07;4.88;;;;;;;;;;5157310;27;20474;-72
2021/08/20 01:37:59;;;;;;;7.38;3.08;;;;;;;;;;5157075;27;20027;-72
2021/08/20 01:40:25;;;;;;;10.02;5.60;;;;;;;;;;5156909;27;20058;-72
2021/08/20 01:42:51;;;;;;;9.07;6.28;;;;;;;;;;5157334;27;20077;-72
2021/08/20 01:45:16;;;;;;;9.35;6.38;;;;;;;;;;5157591;27;20505;-72
2021/08/20 01:47:42;;;;;;;7.78;5.43;;;;;;;;;;5157477;27;20054;-72
2021/08/20 01:50:09;;;;;;;7.88;3.65;;;;;;;;;;5157247;27;20427;-72
2021/08/20 01:52:35;;;;;;;6.40;3.72;;;;;;;;;;5138476;27;20026;-72
2021/08/20 01:55:03;;;;;;;8.60;6.28;;;;;;;;;;5139109;27;20054;-72
2021/08/20 01:57:30;;;;;;;6.22;4.97;;;;;;;;;;5157908;27;20535;-72
2021/08/20 01:59:56;;;;;;;9.05;4.78;;;;;;;;;;5157638;27;20023;-74
2021/08/20 02:02:21;;;;;;;6.57;4.60;;;;;;;;;;5157341;27;20163;-77
2021/08/20 02:04:47;;;;;;;8.95;5.80;;;;;;;;;;5138369;27;20038;-72
2021/08/20 02:07:12;;;;;;;8.40;7.30;;;;;;;;;;5157317;27;20130;-72
2021/08/20 02:09:38;;;;;;;7.00;5.68;;;;;;;;;;5138046;27;20106;-73
2021/08/20 02:12:04;;;;;;;9.07;5.20;;;;;;;;;;5156691;27;20023;-73
2021/08/20 03:23:21;;;;;;;7.05;4.07;;;;;;;;;;5111480;27;20933;-85
2021/08/20 03:25:47;;;;;;;10.18;4.55;;;;;;;;;;5111457;28;20044;-85
2021/08/20 03:28:13;;;;;;;9.02;4.53;;;;;;;;;;5111329;28;20356;-85
2021/08/20 03:30:38;;;;;;;7.22;4.15;;;;;;;;;;5111316;28;20024;-85
2021/08/20 03:33:04;;;;;;;7.35;3.60;;;;;;;;;;5111171;28;20020;-85
2021/08/20 03:35:31;;;;;;;9.02;4.38;;;;;;;;;;5111126;28;20023;-86
2021/08/20 03:37:58;;;;;;;7.50;4.82;;;;;;;;;;5111253;28;20493;-86
2021/08/20 03:40:25;;;;;;;9.63;3.60;;;;;;;;;;5111107;28;20024;-86
2021/08/20 03:42:55;;;;;;;7.95;4.03;;;;;;;;;;5111202;28;20030;-86
2021/08/20 03:45:20;;;;;;;7.43;4.45;;;;;;;;;;5111123;28;20410;-86
2021/08/20 03:47:47;;;;;;;9.02;4.45;;;;;;;;;;5109700;28;20028;-86
2021/08/20 03:50:16;;;;;;;6.88;4.18;;;;;;;;;;5111012;28;20098;-86
2021/08/20 03:52:42;;;;;;;7.18;4.97;;;;;;;;;;5111084;28;20371;-86
2021/08/20 03:55:08;;;;;;;8.95;4.28;;;;;;;;;;5111219;28;20024;-86
2021/08/20 03:57:34;;;;;;;7.13;3.90;;;;;;;;;;5110857;28;20441;-87
2021/08/20 03:59:59;;;;;;;7.80;4.15;;;;;;;;;;5109367;28;20115;-85
2021/08/20 04:02:25;;;;;;;9.30;3.33;;;;;;;;;;5110026;28;20032;-86
2021/08/20 04:04:51;;;;;;;8.27;4.28;;;;;;;;;;5110771;28;20352;-85
2021/08/20 04:07:19;;;;;;;9.70;4.03;;;;;;;;;;5109258;28;20028;-84
2021/08/20 04:09:46;;;;;;;7.90;3.40;;;;;;;;;;5110451;28;20455;-85
2021/08/20 04:12:12;;;;;;;7.43;3.83;;;;;;;;;;5110451;28;20024;-86
2021/08/20 04:14:38;;;;;;;9.30;4.32;;;;;;;;;;5109334;28;20020;-85
2021/08/20 04:17:03;;;;;;;8.02;4.50;;;;;;;;;;5110240;28;20035;-85
2021/08/20 04:19:29;;;;;;;8.65;4.82;;;;;;;;;;5110337;28;20023;-86
2021/08/20 04:21:55;;;;;;;12.07;6.07;;;;;;;;;;5108839;28;20060;-86
2021/08/20 04:24:20;;;;;;;6.80;3.72;;;;;;;;;;5096298;28;20387;-86
2021/08/20 04:26:46;;;;;;;8.02;4.55;;;;;;;;;;5096592;28;20406;-85
2021/08/20 04:29:12;;;;;;;6.90;3.95;;;;;;;;;;5096413;28;20103;-84
2021/08/20 04:31:38;;;;;;;13.48;5.15;;;;;;;;;;5096431;28;20035;-85
2021/08/20 04:34:03;;;;;;;8.45;3.72;;;;;;;;;;5096489;28;20020;-85
2021/08/20 04:36:29;;;;;;;10.50;3.88;;;;;;;;;;5095198;28;20407;-86
2021/08/20 04:38:55;;;;;;;7.82;3.90;;;;;;;;;;5096686;28;20020;-86
2021/08/20 04:41:20;;;;;;;9.15;4.00;;;;;;;;;;5096230;28;20025;-86
2021/08/20 04:43:46;;;;;;;7.57;3.42;;;;;;;;;;5096279;28;20522;-85
2021/08/20 04:46:12;;;;;;;10.18;4.72;;;;;;;;;;5096400;28;20031;-86
2021/08/20 04:48:37;;;;;;;7.78;6.03;;;;;;;;;;5096398;28;20059;-86
2021/08/20 04:51:03;;;;;;;8.27;3.47;;;;;;;;;;5097618;28;20020;-87
2021/08/20 04:53:31;;;;;;;6.65;3.78;;;;;;;;;;5104277;28;20065;-85
2021/08/20 04:55:58;;;;;;;6.90;4.32;;;;;;;;;;5109266;28;20009;-85
2021/08/20 04:58:25;;;;;;;6.85;4.40;;;;;;;;;;5121745;28;20028;-87
2021/08/20 05:00:51;;;;;;;7.57;4.30;;;;;;;;;;5119941;28;20074;-88
2021/08/20 05:03:18;;;;;;;7.55;3.38;;;;;;;;;;5099229;28;20024;-88
2021/08/20 05:05:44;;;;;;;8.18;5.95;;;;;;;;;;5079023;28;20088;-84
2021/08/20 05:08:10;;;;;;;6.95;3.47;;;;;;;;;;5096933;28;20104;-84
2021/08/20 05:10:36;;;;;;;7.63;6.13;;;;;;;;;;5096685;28;20459;-85
2021/08/20 05:13:02;;;;;;;8.85;7.32;;;;;;;;;;5096517;28;20031;-90
2021/08/20 05:15:27;;;;;;;7.55;3.63;;;;;;;;;;5096211;28;20043;-89
2021/08/20 05:17:54;;;;;;;9.57;3.97;;;;;;;;;;5095910;28;20467;-88
2021/08/20 05:20:20;;;;;;;7.82;4.25;;;;;;;;;;5094637;28;20492;-88
2021/08/20 05:22:51;;;;;;;7.68;3.47;;;;;;;;;;5095471;28;20075;-89
2021/08/20 05:25:18;;;;;;;9.00;3.40;;;;;;;;;;5095850;28;20106;-87
2021/08/20 05:27:44;;;;;;;5.55;3.20;;;;;;;;;;5095377;28;20020;-88
2021/08/20 05:30:11;;;;;;;9.10;3.65;;;;;;;;;;5095443;28;20414;-88
2021/08/20 05:32:37;;;;;;;6.25;2.83;;;;;;;;;;5095426;28;20038;-87
2021/08/20 05:35:04;;;;;;;7.97;3.67;;;;;;;;;;5094230;28;20488;-88
2021/08/20 05:37:30;;;;;;;7.05;4.15;;;;;;;;;;5089814;22;20080;-85
2021/08/20 05:39:56;;;;;;;18.85;3.85;;;;;;;;;;5056954;28;20507;-89
2021/08/20 05:42:21;;;;;;;8.65;3.72;;;;;;;;;;5074731;28;20029;-86
2021/08/20 05:44:47;;;;;;;7.40;2.78;;;;;;;;;;5074859;28;20024;-88
2021/08/20 05:47:16;;;;;;;5.18;2.97;;;;;;;;;;5056864;28;20119;-88
2021/08/20 05:49:41;;;;;;;5.68;3.08;;;;;;;;;;5074649;28;20028;-87
2021/08/20 05:52:10;;;;;;;6.63;3.47;;;;;;;;;;5074566;28;20107;-88
2021/08/20 05:54:36;;;;;;;6.82;3.13;;;;;;;;;;5074601;28;20025;-87
2021/08/20 05:57:01;;;;;;;5.03;2.60;;;;;;;;;;5074367;28;20353;-87
2021/08/20 05:59:27;;;;;;;5.20;2.67;;;;;;;;;;5074435;28;20020;-87
2021/08/20 06:01:53;;;;;;;5.88;2.47;;;;;;;;;;5074294;28;20028;-83
2021/08/20 06:04:18;;;;;;;5.82;2.33;;;;;;;;;;5056503;28;20468;-83
2021/08/20 06:06:44;;;;;;;4.45;2.17;;;;;;;;;;5056368;28;20111;-82
2021/08/20 06:09:10;;;;;;;6.65;2.95;;;;;;;;;;5074370;28;20425;-84
2021/08/20 06:11:35;;;;;;;11.02;2.55;;;;;;;;;;5056540;28;20364;-84
2021/08/20 06:14:01;;;;;;;8.38;2.80;;;;;;;;;;5074248;28;20060;-85
2021/08/20 06:16:27;;;;;;;8.38;3.08;;;;;;;;;;5056403;28;20020;-84
2021/08/20 06:18:53;;;;;;;6.15;2.53;;;;;;;;;;5056559;28;20028;-89
2021/08/20 06:21:18;;;;;;;8.70;2.58;;;;;;;;;;5074309;28;20028;-89
2021/08/20 06:23:44;;;;;;;7.65;2.70;;;;;;;;;;5056671;28;20115;-84
2021/08/20 06:26:10;;;;;;;5.82;2.63;;;;;;;;;;5074006;28;20137;-86
2021/08/20 06:28:36;;;;;;;5.28;2.53;;;;;;;;;;5074007;28;20055;-83
2021/08/20 06:31:04;;;;;;;6.65;2.30;;;;;;;;;;5073968;28;20032;-84
2021/08/20 06:33:34;;;;;;;4.93;1.60;;;;;;;;;;5073856;28;20480;-84
2021/08/20 06:36:01;;;;;;;6.40;2.47;;;;;;;;;;5074046;28;20119;-86
2021/08/20 06:38:27;;;;;;;5.65;1.67;;;;;;;;;;5073689;28;20369;-86
2021/08/20 06:40:52;;;;;;;13.98;6.30;;;;;;;;;;5073773;28;20032;-88
2021/08/20 06:43:18;;;;;;;6.60;5.18;;;;;;;;;;5074547;28;20032;-84
2021/08/20 06:45:44;;;;;;;7.38;5.72;;;;;;;;;;5073643;28;20059;-85
2021/08/20 06:48:10;;;;;;;7.88;1.92;;;;;;;;;;5073916;28;20102;-85
2021/08/20 06:50:35;;;;;;;5.57;2.15;;;;;;;;;;5074095;28;20016;-87
2021/08/20 06:53:01;;;;;;;4.45;1.52;;;;;;;;;;5056025;28;20040;-87
2021/08/20 06:55:30;;;;;;;5.88;1.92;;;;;;;;;;5074987;28;20025;-84
2021/08/20 06:57:56;;;;;;;6.03;2.10;;;;;;;;;;5074369;28;20075;-84
2021/08/20 07:00:24;;;;;;;7.53;3.00;;;;;;;;;;5056990;28;20415;-87
2021/08/20 07:06:20;;;;;;;7.32;5.28;;;;;;;;;;5102247;22;20059;-84
2021/08/20 07:08:56;;;;;;;5.93;2.25;;;;;;;;;;5074368;28;20040;-83
2021/08/20 07:11:23;;;;;;;4.57;1.75;;;;;;;;;;5074470;28;20025;-82
2021/08/20 07:13:50;;;;;;;5.32;1.98;;;;;;;;;;5077020;28;20099;-87
2021/08/20 07:17:11;;;;;;;6.70;2.28;;;;;;;;;;5074355;28;20017;-83
2021/08/20 07:19:37;;;;;;;5.30;1.40;;;;;;;;;;5074030;28;20040;-81
2021/08/20 07:22:03;;;;;;;5.28;1.80;;;;;;;;;;5056258;28;20025;-83
2021/08/20 07:24:29;;;;;;;6.57;2.13;;;;;;;;;;5073756;28;20078;-80
2021/08/20 07:26:54;;;;;;;4.00;1.70;;;;;;;;;;5073710;28;20035;-82
2021/08/20 07:29:22;;;;;;;7.32;5.65;;;;;;;;;;5073881;28;20060;-81
2021/08/20 07:31:48;;;;;;;6.03;5.13;;;;;;;;;;5073813;28;20484;-82
2021/08/20 07:34:17;;;;;;;15.57;5.20;;;;;;;;;;5073996;28;20040;-83
2021/08/20 07:36:42;;;;;;;8.13;2.95;;;;;;;;;;5022952;28;20380;-82
2021/08/20 07:39:08;;;;;;;6.95;5.03;;;;;;;;;;5081705;28;20025;-80
2021/08/20 07:41:34;;;;;;;6.55;5.55;;;;;;;;;;5077923;28;20036;-82
2021/08/20 07:43:59;;;;;;;5.75;1.98;;;;;;;;;;5075786;28;20039;-81
2021/08/20 07:46:31;;;;;;;5.90;5.22;;;;;;;;;;5084018;28;20035;-88
2021/08/20 07:49:02;;;;;;;6.07;3.78;;;;;;;;;;5061596;22;20107;-83
2021/08/20 07:51:36;;;;;;;6.75;4.50;;;;;;;;;;5054180;28;20029;-85
2021/08/20 07:54:08;;;;;;;8.25;5.57;;;;;;;;;;5330204;22;20057;-84
2021/08/20 07:56:34;;;;;;;4.85;1.75;;;;;;;;;;5075443;28;20400;-88
2021/08/20 07:58:59;;;;;;;6.90;1.90;;;;;;;;;;5077313;28;20024;-84
2021/08/20 08:01:25;;;;;;;5.50;4.68;;;;;;;;;;5077768;28;20024;-86
2021/08/20 08:03:57;;;;;;;7.47;4.63;;;;;;;;;;5061959;28;20035;-88
2021/08/20 08:09:44;;;;;;;7.78;4.65;;;;;;;;;;5260554;22;20038;-87
2021/08/20 08:12:10;;;;;;;5.90;4.72;;;;;;;;;;5080797;28;20036;-87
2021/08/20 08:14:36;;;;;;;4.90;4.28;;;;;;;;;;5083564;28;20032;-84
2021/08/20 08:17:04;;;;;;;5.63;3.70;;;;;;;;;;5100244;28;20490;-86
2021/08/20 08:19:29;;;;;;;6.25;5.45;;;;;;;;;;5099096;28;20020;-84
2021/08/20 08:21:55;;;;;;;7.18;5.10;;;;;;;;;;5098940;28;20157;-83
2021/08/20 08:24:21;;;;;;;7.15;4.53;;;;;;;;;;5100242;28;20052;-84
2021/08/20 08:26:46;;;;;;;8.55;5.05;;;;;;;;;;5063657;28;20111;-84
2021/08/20 08:29:12;;;;;;;6.10;4.20;;;;;;;;;;5080517;28;20032;-87
2021/08/20 08:31:38;;;;;;;5.88;4.07;;;;;;;;;;5097501;28;20031;-85
2021/08/20 08:34:03;;;;;;;4.88;3.60;;;;;;;;;;5097650;28;20024;-86
2021/08/20 08:36:30;;;;;;;6.18;4.28;;;;;;;;;;5081162;28;20103;-84
2021/08/20 08:38:57;;;;;;;4.53;4.05;;;;;;;;;;5063196;22;20076;-85
2021/08/20 08:41:24;;;;;;;8.05;4.72;;;;;;;;;;5057621;28;20116;-82
2021/08/20 08:43:50;;;;;;;5.40;4.22;;;;;;;;;;5063507;28;20025;-84
2021/08/20 08:46:25;;;;;;;7.13;4.25;;;;;;;;;;5048628;28;20001;-85
2021/08/20 08:48:51;;;;;;;5.28;4.28;;;;;;;;;;5029190;28;20041;-85
2021/08/20 08:51:19;;;;;;;5.57;4.43;;;;;;;;;;5058581;28;20476;-85
2021/08/20 08:56:28;;;;;;;4.10;3.33;;;;;;;;;;5153159;22;20067;-84
2021/08/20 08:58:57;;;;;;;7.47;4.47;;;;;;;;;;5080239;28;20033;-85
2021/08/20 09:01:32;;;;;;;4.80;4.07;;;;;;;;;;5060738;28;20127;-85
2021/08/20 09:04:21;;;;;;;6.45;4.20;;;;;;;;;;5064894;28;20024;-85
2021/08/20 09:06:56;;;;;;;13.02;2.28;;;;;;;;;;5063433;28;20029;-87
2021/08/20 09:09:24;;;;;;;8.45;4.50;;;;;;;;;;5060073;28;20078;-85
2021/08/20 09:11:58;;;;;;;3.85;2.05;;;;;;;;;;5076751;28;20403;-84
2021/08/20 09:14:32;;;;;;;5.05;2.22;;;;;;;;;;5077772;28;20421;-77
2021/08/20 09:16:58;;;;;;;7.20;3.95;;;;;;;;;;5075943;28;20555;-80
2021/08/20 09:19:25;;;;;;;7.32;3.92;;;;;;;;;;5075404;28;20056;-80
2021/08/20 09:21:55;;;;;;;4.13;1.92;;;;;;;;;;5057146;28;20024;-80
2021/08/20 09:24:36;;;;;;;4.68;3.22;;;;;;;;;;5075203;28;20070;-81
2021/08/20 09:27:14;;;;;;;4.28;1.67;;;;;;;;;;5076701;28;20025;-80
2021/08/20 09:30:06;;;;;;;6.63;4.35;;;;;;;;;;5062139;28;20039;-81
2021/08/20 09:32:32;;;;;;;4.53;1.30;;;;;;;;;;5079077;28;20073;-80
2021/08/20 09:35:01;;;;;;;4.95;4.28;;;;;;;;;;5092628;28;20028;-80
2021/08/20 09:37:31;;;;;;;7.30;5.40;;;;;;;;;;5086090;28;20051;-82
2021/08/20 09:40:18;;;;;;;7.20;4.25;;;;;;;;;;5096220;28;20008;-82
2021/08/20 09:42:44;;;;;;;5.13;4.63;;;;;;;;;;5097207;28;20028;-79
2021/08/20 09:45:12;;;;;;;8.93;3.53;;;;;;;;;;5163688;22;20044;-88
2021/08/20 09:47:47;;;;;;;5.70;4.53;;;;;;;;;;5080735;28;20021;-83
2021/08/20 09:50:13;;;;;;;4.53;4.13;;;;;;;;;;5065203;28;20084;-84
2021/08/20 09:52:39;;;;;;;6.05;4.55;;;;;;;;;;5079723;28;20044;-86
2021/08/20 09:55:05;;;;;;;5.50;4.32;;;;;;;;;;5079787;28;20025;-84
2021/08/20 09:57:33;;;;;;;5.78;2.13;;;;;;;;;;5061913;28;20024;-88
2021/08/20 10:00:00;;;;;;;5.20;3.90;;;;;;;;;;5060619;28;20500;-81
2021/08/20 10:02:28;;;;;;;6.03;4.07;;;;;;;;;;5079603;28;20032;-87
2021/08/20 10:05:05;;;;;;;6.30;2.00;;;;;;;;;;5044071;28;20046;-87
2021/08/20 10:07:38;;;;;;;5.50;3.92;;;;;;;;;;5062152;28;20032;-85
2021/08/20 10:10:06;;;;;;;5.47;4.03;;;;;;;;;;5078483;28;20040;-87
2021/08/20 10:12:32;;;;;;;6.20;2.03;;;;;;;;;;5060838;28;20442;-86
2021/08/20 10:14:58;;;;;;;3.92;1.30;;;;;;;;;;5077728;28;20380;-87
2021/08/20 10:17:48;;;;;;;8.15;4.60;;;;;;;;;;5076492;28;20032;-86
2021/08/20 10:20:18;;;;;;;3.75;1.65;;;;;;;;;;5059990;28;20098;-83
2021/08/20 10:22:44;;;;;;;6.50;3.10;;;;;;;;;;5058877;28;20396;-84
2021/08/20 10:25:10;;;;;;;5.80;3.58;;;;;;;;;;5078323;28;20054;-87
2021/08/20 10:27:37;;;;;;;4.65;3.72;;;;;;;;;;5058648;28;20036;-85
2021/08/20 10:30:12;;;;;;;4.80;3.95;;;;;;;;;;5076187;28;20032;-83
2021/08/20 10:32:57;;;;;;;6.38;4.43;;;;;;;;;;5060393;28;20480;-83
2021/08/20 10:35:49;;;;;;;4.75;3.83;;;;;;;;;;5057824;28;20024;-84
2021/08/20 10:38:42;;;;;;;6.20;3.83;;;;;;;;;;5075562;28;20028;-84
2021/08/20 10:41:21;;;;;;;5.28;3.65;;;;;;;;;;5065003;28;20111;-85
2021/08/20 10:44:16;;;;;;;5.82;3.78;;;;;;;;;;5076009;28;20024;-84
2021/08/20 10:46:42;;;;;;;5.40;4.15;;;;;;;;;;5074082;28;20025;-85
2021/08/20 10:49:11;;;;;;;4.10;1.52;;;;;;;;;;5074818;28;20027;-84
2021/08/20 10:51:49;;;;;;;5.32;2.17;;;;;;;;;;5075307;28;20527;-85
2021/08/20 10:54:17;;;;;;;5.53;4.05;;;;;;;;;;5057717;28;20035;-84
2021/08/20 10:56:43;;;;;;;5.95;1.45;;;;;;;;;;5076304;28;20063;-84
2021/08/20 10:59:29;;;;;;;3.67;1.30;;;;;;;;;;5074114;28;20025;-84
2021/08/20 11:02:21;;;;;;;4.50;3.58;;;;;;;;;;5075776;28;20029;-85
2021/08/20 11:05:05;;;;;;;3.88;1.23;;;;;;;;;;5075656;28;20538;-85
2021/08/20 11:07:37;;;;;;;12.25;4.85;;;;;;;;;;5075473;28;20024;-85
2021/08/20 11:10:08;;;;;;;5.07;3.35;;;;;;;;;;5075118;28;20020;-83
2021/08/20 11:12:43;;;;;;;6.10;4.65;;;;;;;;;;5075565;28;20059;-82
2021/08/20 11:15:17;;;;;;;7.10;4.90;;;;;;;;;;5073774;28;20541;-86
2021/08/20 11:17:59;;;;;;;5.35;1.80;;;;;;;;;;5074283;28;20538;-84
2021/08/20 11:20:28;;;;;;;6.75;3.58;;;;;;;;;;5073857;28;20016;-84
2021/08/20 11:23:06;;;;;;;4.80;1.65;;;;;;;;;;5074011;28;20024;-84
2021/08/20 11:25:41;;;;;;;6.25;1.40;;;;;;;;;;5073862;28;20028;-81
2021/08/20 11:28:24;;;;;;;3.92;0.95;;;;;;;;;;5074039;28;20028;-83
2021/08/20 11:31:14;;;;;;;3.63;1.42;;;;;;;;;;5073602;28;20503;-81
2021/08/20 11:33:46;;;;;;;3.67;0.90;;;;;;;;;;5076390;28;20491;-82
2021/08/20 11:36:18;;;;;;;4.13;1.60;;;;;;;;;;5078067;28;20024;-87
2021/08/20 11:38:53;;;;;;;5.00;1.33;;;;;;;;;;5078197;28;20471;-82
2021/08/20 11:41:27;;;;;;;4.47;1.45;;;;;;;;;;5077712;28;20029;-82
2021/08/20 11:43:58;;;;;;;4.95;1.35;;;;;;;;;;5077401;28;20515;-82
2021/08/20 11:46:26;;;;;;;7.20;4.53;;;;;;;;;;5077564;28;20503;-84
2021/08/20 11:48:54;;;;;;;5.30;1.48;;;;;;;;;;5059554;28;20028;-84
2021/08/20 11:51:29;;;;;;;7.05;3.88;;;;;;;;;;5059410;28;20488;-84
2021/08/20 11:53:56;;;;;;;3.50;1.45;;;;;;;;;;5077255;28;20111;-84
2021/08/20 11:56:22;;;;;;;4.57;1.10;;;;;;;;;;5059626;28;20016;-84
2021/08/20 11:58:47;;;;;;;6.70;1.33;;;;;;;;;;5077510;28;20104;-84
2021/08/20 12:01:27;;;;;;;5.63;3.50;;;;;;;;;;5078907;28;20111;-82
2021/08/20 12:03:58;;;;;;;4.03;1.58;;;;;;;;;;5059173;28;20029;-81
2021/08/20 12:06:26;;;;;;;3.22;1.23;;;;;;;;;;5079223;28;20470;-82
2021/08/20 12:09:00;;;;;;;5.90;1.67;;;;;;;;;;5083024;28;20035;-80
2021/08/20 12:11:29;;;;;;;5.03;1.30;;;;;;;;;;5079158;28;20023;-82
2021/08/20 12:13:56;;;;;;;8.40;1.38;;;;;;;;;;5078031;28;20024;-83
2021/08/20 12:16:43;;;;;;;4.07;1.17;;;;;;;;;;5078239;28;20051;-84
2021/08/20 12:19:13;;;;;;;5.07;3.30;;;;;;;;;;5078526;28;20028;-84
2021/08/20 12:21:39;;;;;;;4.10;1.60;;;;;;;;;;5076907;28;20024;-82
2021/08/20 12:24:06;;;;;;;5.15;4.15;;;;;;;;;;5077082;28;20029;-87
2021/08/20 12:26:34;;;;;;;5.47;1.08;;;;;;;;;;5077907;28;20024;-86
2021/08/20 12:29:12;;;;;;;4.25;1.48;;;;;;;;;;5076909;28;20028;-83
2021/08/20 12:31:38;;;;;;;3.00;0.98;;;;;;;;;;5078275;28;20352;-84
2021/08/20 12:34:05;;;;;;;4.60;1.13;;;;;;;;;;5059065;28;20081;-83
2021/08/20 12:36:31;;;;;;;5.63;4.13;;;;;;;;;;5077747;28;20027;-84
2021/08/20 12:39:34;;;;;;;6.45;3.38;;;;;;;;;;5077386;28;20036;-82
2021/08/20 12:42:19;;;;;;;5.57;3.83;;;;;;;;;;5041872;28;20036;-84
2021/08/20 12:44:45;;;;;;;5.78;3.50;;;;;;;;;;5075510;28;20484;-83
2021/08/20 12:47:11;;;;;;;7.32;3.95;;;;;;;;;;5058728;28;20028;-82
2021/08/20 12:50:14;;;;;;;6.30;1.75;;;;;;;;;;5076591;28;20074;-86
2021/08/20 12:52:42;;;;;;;8.98;1.70;;;;;;;;;;5077495;28;20017;-84
2021/08/20 12:55:26;;;;;;;5.97;1.63;;;;;;;;;;5077111;28;20384;-84
2021/08/20 12:57:54;;;;;;;3.97;1.58;;;;;;;;;;5076803;28;20020;-84
2021/08/20 13:00:20;;;;;;;5.40;1.42;;;;;;;;;;5076011;28;20030;-85
2021/08/20 13:02:45;;;;;;;7.70;1.77;;;;;;;;;;5074986;28;20380;-85
2021/08/20 13:05:12;;;;;;;8.30;1.77;;;;;;;;;;5075678;28;20103;-85
2021/08/20 13:07:37;;;;;;;7.90;1.40;;;;;;;;;;5059892;28;20030;-85
2021/08/20 13:10:04;;;;;;;9.20;3.70;;;;;;;;;;5076565;28;20488;-85
2021/08/20 13:12:29;;;;;;;5.25;3.28;;;;;;;;;;5041961;28;20460;-85
2021/08/20 13:14:55;;;;;;;5.95;1.58;;;;;;;;;;5075540;28;20056;-85
2021/08/20 13:17:23;;;;;;;7.00;1.88;;;;;;;;;;5075237;28;20039;-85
2021/08/20 13:19:52;;;;;;;4.95;1.10;;;;;;;;;;5077313;28;20027;-84
2021/08/20 13:22:17;;;;;;;4.57;1.42;;;;;;;;;;5076337;28;20579;-85
2021/08/20 13:24:44;;;;;;;6.65;1.25;;;;;;;;;;5076544;28;20063;-84
2021/08/20 13:27:10;;;;;;;12.63;1.50;;;;;;;;;;5076374;28;20020;-85
2021/08/20 13:29:36;;;;;;;4.60;1.60;;;;;;;;;;5076213;28;20021;-85
2021/08/20 13:32:02;;;;;;;7.22;1.67;;;;;;;;;;5057823;28;20012;-87
2021/08/20 13:34:28;;;;;;;5.65;1.40;;;;;;;;;;5075598;28;20033;-86
2021/08/20 13:36:54;;;;;;;7.57;1.55;;;;;;;;;;5075455;28;20020;-86
2021/08/20 13:39:26;;;;;;;6.10;1.65;;;;;;;;;;5076403;28;20013;-83
2021/08/20 13:41:53;;;;;;;8.25;1.50;;;;;;;;;;5066131;28;20024;-85
2021/08/20 13:44:19;;;;;;;6.35;1.50;;;;;;;;;;5060093;28;20045;-85
2021/08/20 13:46:44;;;;;;;15.43;2.10;;;;;;;;;;5080095;28;20036;-86
2021/08/20 13:49:14;;;;;;;4.70;1.80;;;;;;;;;;5076449;28;20472;-84
2021/08/20 13:51:40;;;;;;;8.55;3.97;;;;;;;;;;5076073;28;20029;-84
2021/08/20 13:54:06;;;;;;;10.02;1.80;;;;;;;;;;5076104;28;20538;-85
2021/08/20 13:56:32;;;;;;;9.82;1.38;;;;;;;;;;5076197;28;20016;-85
2021/08/20 13:58:58;;;;;;;7.13;1.50;;;;;;;;;;5060419;28;20035;-84
2021/08/20 14:01:24;;;;;;;7.85;2.08;;;;;;;;;;5081966;28;20029;-85
2021/08/20 14:03:49;;;;;;;7.70;2.05;;;;;;;;;;5069485;28;20035;-84
2021/08/20 14:06:15;;;;;;;6.28;1.80;;;;;;;;;;5081468;28;20495;-84
2021/08/20 14:08:41;;;;;;;8.32;3.55;;;;;;;;;;5087545;28;20027;-84
2021/08/20 14:11:07;;;;;;;5.78;3.58;;;;;;;;;;5092269;28;20060;-82
2021/08/20 14:13:33;;;;;;;6.82;1.58;;;;;;;;;;5090681;28;20044;-85
2021/08/20 14:15:59;;;;;;;5.13;1.42;;;;;;;;;;5079829;28;20056;-84
2021/08/20 14:18:25;;;;;;;11.70;1.73;;;;;;;;;;5077828;28;20542;-85
2021/08/20 14:20:51;;;;;;;14.52;2.05;;;;;;;;;;5058552;28;20025;-84
2021/08/20 14:23:17;;;;;;;10.30;2.38;;;;;;;;;;5075524;28;20028;-85
2021/08/20 14:25:44;;;;;;;6.10;4.05;;;;;;;;;;5077769;28;20041;-82
2021/08/20 14:28:10;;;;;;;5.35;1.80;;;;;;;;;;5074553;28;20025;-85
2021/08/20 14:30:36;;;;;;;11.60;1.83;;;;;;;;;;5077579;28;20070;-86
2021/08/20 14:33:03;;;;;;;16.13;4.05;;;;;;;;;;5076897;28;20032;-86
2021/08/20 14:35:30;;;;;;;8.15;4.78;;;;;;;;;;5076113;28;20036;-87
2021/08/20 14:37:55;;;;;;;9.48;3.88;;;;;;;;;;5058957;28;20016;-87
2021/08/20 14:40:21;;;;;;;6.97;1.45;;;;;;;;;;5076856;28;20468;-86
2021/08/20 14:42:47;;;;;;;5.53;2.00;;;;;;;;;;5057921;28;20051;-86
2021/08/20 14:45:13;;;;;;;6.75;2.15;;;;;;;;;;5075262;28;20534;-87
2021/08/20 14:47:39;;;;;;;7.15;4.70;;;;;;;;;;5075219;28;20035;-89
2021/08/20 14:50:05;;;;;;;6.05;1.67;;;;;;;;;;5075388;28;20517;-87
2021/08/20 14:52:31;;;;;;;7.50;4.55;;;;;;;;;;5075979;28;20066;-88
2021/08/20 14:54:57;;;;;;;11.88;2.28;;;;;;;;;;5075274;28;20021;-85
2021/08/20 14:57:23;;;;;;;7.65;4.13;;;;;;;;;;5076908;28;20052;-89
2021/08/20 14:59:48;;;;;;;10.05;5.63;;;;;;;;;;5076983;28;20021;-84
2021/08/20 15:02:14;;;;;;;9.70;4.18;;;;;;;;;;5075560;28;20024;-83
2021/08/20 15:04:43;;;;;;;8.73;2.55;;;;;;;;;;5062125;28;20396;-82
2021/08/20 15:07:13;;;;;;;9.80;4.45;;;;;;;;;;5077650;28;20016;-87
2021/08/20 15:09:39;;;;;;;6.22;4.35;;;;;;;;;;5076632;28;20024;-85
2021/08/20 15:12:06;;;;;;;4.38;1.52;;;;;;;;;;5077203;28;20491;-87
2021/08/20 15:14:32;;;;;;;8.30;4.10;;;;;;;;;;5074873;28;20024;-87
2021/08/20 15:17:07;;;;;;;11.40;1.90;;;;;;;;;;5075219;28;20475;-84
2021/08/20 15:19:36;;;;;;;13.75;4.85;;;;;;;;;;5057683;28;20033;-86
2021/08/20 15:22:03;;;;;;;7.45;4.78;;;;;;;;;;5057287;28;20032;-84
2021/08/20 15:24:29;;;;;;;7.55;5.22;;;;;;;;;;5077030;28;20048;-85
2021/08/20 15:26:55;;;;;;;9.32;4.95;;;;;;;;;;5057220;28;20025;-84
2021/08/20 15:29:22;;;;;;;8.75;4.90;;;;;;;;;;5077427;28;20020;-86
2021/08/20 15:31:48;;;;;;;12.25;4.55;;;;;;;;;;5061238;28;20421;-81
2021/08/20 15:34:13;;;;;;;9.57;4.28;;;;;;;;;;5078439;28;20111;-85
2021/08/20 15:36:39;;;;;;;9.73;4.03;;;;;;;;;;5078270;28;20032;-84
2021/08/20 15:39:30;;;;;;;12.90;4.90;;;;;;;;;;5080863;28;20067;-83
2021/08/20 15:42:11;;;;;;;;;;;;;;;;;;;;;
2021/08/20 15:44:37;;;;;;;8.68;4.70;;;;;;;;;;5062261;28;20104;-87
2021/08/20 15:47:04;;;;;;;7.03;3.88;;;;;;;;;;5078027;28;20052;-86
2021/08/20 15:49:30;;;;;;;9.98;5.30;;;;;;;;;;5078824;28;20460;-87
2021/08/20 15:51:59;;;;;;;6.68;5.03;;;;;;;;;;5076997;28;20115;-87
2021/08/20 15:54:27;;;;;;;7.40;4.00;;;;;;;;;;5063070;28;20032;-88
2021/08/20 15:57:17;;;;;;;5.70;4.32;;;;;;;;;;5079030;28;20099;-88
2021/08/20 16:00:19;;;;;;;7.40;3.80;;;;;;;;;;5085229;28;20025;-83
2021/08/20 16:02:37;;;;;;;7.88;4.72;;;;;;;;;;5076522;28;20041;-84
2021/08/20 16:05:04;;;;;;;7.18;4.28;;;;;;;;;;5078146;28;20028;-85
2021/08/20 16:07:30;;;;;;;8.23;5.28;;;;;;;;;;5057535;28;20024;-87
2021/08/20 16:09:55;;;;;;;8.23;4.90;;;;;;;;;;5059112;28;20039;-86
2021/08/20 16:12:21;;;;;;;9.02;4.53;;;;;;;;;;5077288;28;20025;-86